createdAt,value
2019-03-08T00:01:32.386Z,67.25
2019-03-08T00:03:58.993Z,66.42
2019-03-08T00:06:25.885Z,66.61
2019-03-08T00:08:52.393Z,66.22
2019-03-08T00:11:18.858Z,66.43
2019-03-08T00:13:45.557Z,66.48
2019-03-08T00:16:12.199Z,66.32
2019-03-08T00:18:38.599Z,66.34
2019-03-08T00:21:05.164Z,66.00
2019-03-08T00:23:31.963Z,66.25
2019-03-08T00:25:58.677Z,66.55
2019-03-08T00:28:25.275Z,66.46
2019-03-08T00:30:51.710Z,66.34
2019-03-08T00:33:18.111Z,66.06
2019-03-08T00:35:44.534Z,66.41
2019-03-08T00:38:10.866Z,66.45
2019-03-08T00:40:37.446Z,66.24
2019-03-08T00:43:04.127Z,66.50
2019-03-08T00:45:30.598Z,66.31
2019-03-08T00:47:57.230Z,65.98
2019-03-08T00:50:24.002Z,66.27
2019-03-08T00:52:50.484Z,66.42
2019-03-08T00:55:17.201Z,66.30
2019-03-08T00:57:43.619Z,65.83
2019-03-08T01:00:18.992Z,66.74
2019-03-08T01:02:45.381Z,66.46
2019-03-08T01:05:12.507Z,66.64
2019-03-08T01:07:39.197Z,66.74
2019-03-08T01:10:10.956Z,66.61
2019-03-08T01:12:37.365Z,66.69
2019-03-08T01:15:09.333Z,66.95
2019-03-08T01:17:35.617Z,66.57
2019-03-08T01:20:03.242Z,66.11
2019-03-08T01:22:29.628Z,66.27
2019-03-08T01:24:56.823Z,66.42
2019-03-08T01:27:23.242Z,65.96
2019-03-08T01:29:49.828Z,65.84
2019-03-08T01:32:16.199Z,65.78
2019-03-08T01:34:42.518Z,65.77
2019-03-08T01:37:09.383Z,65.53
2019-03-08T01:39:35.729Z,65.15
2019-03-08T01:42:02.370Z,65.46
2019-03-08T01:44:28.894Z,65.56
2019-03-08T01:46:55.589Z,65.42
2019-03-08T01:49:22.027Z,65.56
2019-03-08T01:51:48.411Z,63.85
2019-03-08T01:54:14.986Z,64.36
2019-03-08T01:56:42.869Z,64.57
2019-03-08T01:59:10.163Z,64.48
2019-03-08T02:01:36.557Z,64.22
2019-03-08T02:04:03.086Z,64.19
2019-03-08T02:06:29.562Z,64.42
2019-03-08T02:08:56.012Z,64.47
2019-03-08T02:11:22.635Z,64.55
2019-03-08T02:13:48.925Z,64.40
2019-03-08T02:16:15.223Z,64.38
2019-03-08T02:18:42.035Z,64.58
2019-03-08T02:21:08.567Z,64.26
2019-03-08T02:23:34.951Z,64.06
2019-03-08T02:26:01.382Z,64.46
2019-03-08T02:28:27.667Z,64.19
2019-03-08T02:30:54.165Z,64.63
2019-03-08T02:33:20.677Z,64.62
2019-03-08T02:35:47.044Z,64.76
2019-03-08T02:38:13.450Z,64.94
2019-03-08T02:40:40.752Z,64.59
2019-03-08T02:43:16.250Z,64.96
2019-03-08T02:45:43.046Z,64.92
2019-03-08T02:48:09.517Z,64.83
2019-03-08T02:50:35.908Z,64.79
2019-03-08T02:53:02.538Z,64.94
2019-03-08T02:55:29.497Z,65.03
2019-03-08T02:57:56.189Z,65.37
2019-03-08T03:00:30.935Z,65.26
2019-03-08T03:02:57.487Z,64.97
2019-03-08T03:05:23.920Z,65.38
2019-03-08T03:07:50.261Z,65.25
2019-03-08T03:10:17.208Z,65.22
2019-03-08T03:12:44.112Z,65.46
2019-03-08T03:15:13.109Z,65.57
2019-03-08T03:17:40.079Z,65.66
2019-03-08T03:20:09.965Z,65.81
2019-03-08T03:22:36.286Z,65.59
2019-03-08T03:25:06.000Z,66.04
2019-03-08T03:27:32.303Z,65.38
2019-03-08T03:29:58.635Z,65.59
2019-03-08T03:32:24.942Z,64.89
2019-03-08T03:34:51.559Z,65.27
2019-03-08T03:37:17.951Z,65.71
2019-03-08T03:39:44.490Z,65.48
2019-03-08T03:42:10.778Z,65.68
2019-03-08T03:44:37.449Z,65.58
2019-03-08T03:47:03.732Z,65.65
2019-03-08T03:49:30.159Z,65.47
2019-03-08T03:51:56.710Z,65.75
2019-03-08T03:54:23.017Z,65.81
2019-03-08T03:56:49.737Z,66.04
2019-03-08T03:59:16.387Z,66.15
2019-03-08T04:01:45.551Z,66.01
2019-03-08T04:04:11.918Z,66.16
2019-03-08T04:06:38.566Z,66.60
2019-03-08T04:09:10.744Z,66.19
2019-03-08T04:11:37.814Z,66.40
2019-03-08T04:14:04.154Z,66.11
2019-03-08T04:16:30.478Z,66.44
2019-03-08T04:18:56.800Z,66.28
2019-03-08T04:21:23.158Z,66.30
2019-03-08T04:23:49.805Z,66.22
2019-03-08T04:26:16.094Z,66.32
2019-03-08T04:28:42.405Z,66.36
2019-03-08T04:31:09.039Z,66.37
2019-03-08T04:33:35.492Z,66.37
2019-03-08T04:36:02.297Z,66.38
2019-03-08T04:38:28.645Z,66.13
2019-03-08T04:40:55.056Z,66.02
2019-03-08T04:43:21.726Z,66.23
2019-03-08T04:45:48.022Z,65.94
2019-03-08T04:48:14.427Z,66.05
2019-03-08T04:50:41.072Z,66.32
2019-03-08T04:53:07.371Z,66.87
2019-03-08T04:55:33.720Z,66.43
2019-03-08T04:58:00.110Z,66.50
2019-03-08T05:00:26.639Z,66.46
2019-03-08T05:02:53.028Z,66.63
2019-03-08T05:05:19.331Z,66.64
2019-03-08T05:07:46.303Z,66.66
2019-03-08T05:10:15.333Z,66.77
2019-03-08T05:12:42.001Z,66.56
2019-03-08T05:15:09.427Z,66.48
2019-03-08T05:17:35.734Z,66.34
2019-03-08T05:20:05.402Z,66.47
2019-03-08T05:22:31.831Z,66.27
2019-03-08T05:24:58.224Z,66.25
2019-03-08T05:27:24.884Z,66.15
2019-03-08T05:29:51.267Z,66.13
2019-03-08T05:32:17.597Z,66.15
2019-03-08T05:34:44.349Z,66.32
2019-03-08T05:37:10.726Z,66.08
2019-03-08T05:39:37.018Z,66.12
2019-03-08T05:42:03.319Z,65.87
2019-03-08T05:44:29.811Z,65.60
2019-03-08T05:46:56.644Z,65.63
2019-03-08T05:49:22.968Z,65.45
2019-03-08T05:51:49.356Z,65.33
2019-03-08T05:54:15.719Z,65.64
2019-03-08T05:56:42.227Z,65.69
2019-03-08T05:59:08.778Z,65.44
2019-03-08T06:01:35.280Z,65.51
2019-03-08T06:04:01.788Z,65.37
2019-03-08T06:06:28.477Z,65.28
2019-03-08T06:08:54.787Z,65.04
2019-03-08T06:11:21.299Z,65.30
2019-03-08T06:13:47.804Z,65.22
2019-03-08T06:16:14.358Z,65.08
2019-03-08T06:18:40.748Z,65.38
2019-03-08T06:21:07.532Z,65.18
2019-03-08T06:23:33.831Z,65.44
2019-03-08T06:26:00.125Z,65.18
2019-03-08T06:28:26.545Z,64.81
2019-03-08T06:30:53.081Z,64.86
2019-03-08T06:33:19.513Z,64.68
2019-03-08T06:35:46.129Z,64.49
2019-03-08T06:38:12.702Z,64.51
2019-03-08T06:40:39.528Z,64.43
2019-03-08T06:43:05.945Z,64.34
2019-03-08T06:45:32.341Z,64.40
2019-03-08T06:47:59.476Z,64.33
2019-03-08T06:50:25.902Z,64.09
2019-03-08T06:52:52.365Z,64.14
2019-03-08T06:55:18.903Z,63.93
2019-03-08T06:57:45.502Z,63.89
2019-03-08T07:00:26.848Z,63.69
2019-03-08T07:02:53.254Z,63.92
2019-03-08T07:05:19.746Z,63.64
2019-03-08T07:07:46.554Z,63.64
2019-03-08T07:10:13.283Z,63.56
2019-03-08T07:12:39.690Z,63.26
2019-03-08T07:15:06.398Z,62.98
2019-03-08T07:17:33.518Z,62.49
2019-03-08T07:20:04.907Z,62.77
2019-03-08T07:22:42.454Z,61.70
2019-03-08T07:25:16.703Z,61.86
2019-03-08T07:27:53.751Z,61.38
2019-03-08T07:30:22.046Z,60.69
2019-03-08T07:32:53.619Z,60.74
2019-03-08T07:35:27.939Z,60.71
2019-03-08T07:37:57.995Z,60.34
2019-03-08T07:40:26.699Z,60.12
2019-03-08T07:42:58.231Z,59.92
2019-03-08T07:45:32.525Z,60.16
2019-03-08T07:48:18.054Z,59.43
2019-03-08T07:50:46.842Z,60.74
2019-03-08T07:53:25.053Z,56.85
2019-03-08T07:55:53.511Z,58.01
2019-03-08T07:58:25.084Z,57.43
2019-03-08T08:00:51.711Z,56.33
2019-03-08T08:03:21.273Z,56.83
2019-03-08T08:05:57.863Z,55.68
2019-03-08T08:08:21.905Z,54.06
2019-03-08T08:11:07.375Z,53.96
2019-03-08T08:13:39.125Z,54.40
2019-03-08T08:16:07.441Z,52.05
2019-03-08T08:18:41.360Z,50.78
2019-03-08T08:21:16.117Z,50.85
2019-03-08T08:23:56.389Z,45.95
2019-03-08T08:26:41.394Z,48.16
2019-03-08T08:29:13.669Z,49.37
2019-03-08T08:32:00.100Z,46.68
2019-03-08T08:34:28.408Z,46.68
2019-03-08T08:37:08.767Z,44.74
2019-03-08T08:39:52.339Z,43.18
2019-03-08T08:42:37.400Z,43.69
2019-03-08T08:45:08.350Z,44.37
2019-03-08T08:47:43.766Z,41.41
2019-03-08T08:50:29.264Z,43.37
2019-03-08T08:52:57.810Z,45.05
2019-03-08T08:55:35.404Z,42.78
2019-03-08T08:58:04.059Z,44.28
2019-03-08T09:00:35.334Z,43.65
2019-03-08T09:03:20.780Z,40.45
2019-03-08T09:05:52.321Z,41.84
2019-03-08T09:08:27.304Z,43.09
2019-03-08T09:10:58.468Z,45.29
2019-03-08T09:13:26.689Z,46.28
2019-03-08T09:15:55.147Z,46.15
2019-03-08T09:18:23.443Z,44.33
2019-03-08T09:21:07.220Z,44.58
2019-03-08T09:23:35.519Z,43.16
2019-03-08T09:26:16.363Z,45.97
2019-03-08T09:28:44.703Z,44.20
2019-03-08T09:31:13.206Z,43.96
2019-03-08T09:33:59.592Z,40.56
2019-03-08T09:36:36.623Z,43.44
2019-03-08T09:39:06.630Z,42.24
2019-03-08T09:41:40.928Z,44.85
2019-03-08T09:44:21.921Z,42.84
2019-03-08T09:47:02.767Z,40.96
2019-03-08T09:49:31.534Z,41.15
2019-03-08T09:52:02.347Z,41.72
2019-03-08T09:54:39.912Z,41.37
2019-03-08T09:57:12.627Z,43.40
2019-03-08T09:59:57.361Z,43.80
2019-03-08T10:02:31.467Z,43.46
2019-03-08T10:04:59.891Z,43.41
2019-03-08T10:07:31.166Z,42.29
2019-03-08T10:10:02.187Z,42.65
2019-03-08T10:12:30.741Z,42.68
2019-03-08T10:14:59.414Z,41.94
2019-03-08T10:17:30.638Z,42.71
2019-03-08T10:20:06.063Z,42.71
2019-03-08T10:22:40.228Z,42.83
2019-03-08T10:25:24.034Z,42.79
2019-03-08T10:28:09.007Z,42.96
2019-03-08T10:30:40.360Z,42.48
2019-03-08T10:33:06.953Z,42.53
2019-03-08T10:35:33.688Z,42.44
2019-03-08T10:38:12.061Z,43.26
2019-03-08T10:40:40.403Z,42.48
2019-03-08T10:43:08.829Z,42.40
2019-03-08T10:45:44.515Z,41.72
2019-03-08T10:48:25.750Z,42.59
2019-03-08T10:51:06.241Z,42.25
2019-03-08T10:53:37.772Z,38.28
2019-03-08T10:56:11.649Z,38.87
2019-03-08T10:58:45.982Z,40.25
2019-03-08T11:01:17.507Z,41.39
2019-03-08T11:03:46.364Z,40.23
2019-03-08T11:06:17.971Z,39.56
2019-03-08T11:08:49.455Z,38.89
2019-03-08T11:11:23.411Z,41.02
2019-03-08T11:13:51.771Z,38.22
2019-03-08T11:16:24.960Z,41.03
2019-03-08T11:19:10.167Z,40.22
2019-03-08T11:21:51.686Z,40.04
2019-03-08T11:24:21.403Z,39.61
2019-03-08T11:27:04.704Z,40.07
2019-03-08T11:29:24.945Z,39.44
2019-03-08T11:31:53.184Z,40.10
2019-03-08T11:34:25.429Z,39.56
2019-03-08T11:36:56.725Z,40.53
2019-03-08T11:39:29.027Z,39.61
2019-03-08T11:41:57.841Z,37.35
2019-03-08T11:44:32.287Z,38.13
2019-03-08T11:47:04.379Z,38.94
2019-03-08T11:49:49.525Z,39.19
2019-03-08T11:52:15.910Z,39.11
2019-03-08T11:54:47.193Z,38.89
2019-03-08T11:57:21.493Z,38.64
2019-03-08T11:59:58.432Z,39.36
2019-03-08T12:02:37.535Z,39.98
2019-03-08T12:05:00.202Z,40.69
2019-03-08T12:07:37.591Z,39.66
2019-03-08T12:10:08.635Z,39.62
2019-03-08T12:12:40.119Z,39.62
2019-03-08T12:15:29.695Z,37.91
2019-03-08T12:18:02.412Z,36.82
2019-03-08T12:20:30.615Z,39.73
2019-03-08T12:23:05.018Z,38.71
2019-03-08T12:25:52.007Z,38.99
2019-03-08T12:28:26.040Z,38.64
2019-03-08T12:31:03.087Z,37.92
2019-03-08T12:33:29.918Z,37.31
2019-03-08T12:36:01.206Z,38.00
2019-03-08T12:38:41.558Z,38.54
2019-03-08T12:41:16.081Z,38.35
2019-03-08T12:43:45.138Z,36.91
2019-03-08T12:46:30.075Z,37.12
2019-03-08T12:49:14.844Z,36.99
2019-03-08T12:51:43.612Z,37.17
2019-03-08T12:54:19.507Z,37.41
2019-03-08T12:57:04.980Z,37.45
2019-03-08T12:59:33.290Z,37.81
2019-03-08T13:02:07.378Z,37.04
2019-03-08T13:04:39.612Z,37.03
2019-03-08T13:07:12.842Z,38.21
2019-03-08T13:09:47.909Z,37.37
2019-03-08T13:12:14.926Z,36.10
2019-03-08T13:14:41.663Z,37.76
2019-03-08T13:17:08.162Z,37.77
2019-03-08T13:19:34.785Z,38.39
2019-03-08T13:22:01.355Z,37.98
2019-03-08T13:24:27.769Z,37.40
2019-03-08T13:26:54.200Z,37.35
2019-03-08T13:29:20.877Z,38.15
2019-03-08T13:31:47.166Z,38.80
2019-03-08T13:34:13.807Z,38.60
2019-03-08T13:36:40.429Z,38.88
2019-03-08T13:39:07.426Z,39.31
2019-03-08T13:41:33.916Z,39.54
2019-03-08T13:44:00.775Z,40.14
2019-03-08T13:46:27.853Z,40.46
2019-03-08T13:48:54.372Z,40.98
2019-03-08T13:51:20.711Z,40.13
2019-03-08T13:53:47.224Z,40.81
2019-03-08T13:56:13.787Z,39.52
2019-03-08T13:58:40.087Z,40.02
2019-03-08T14:01:06.437Z,40.03
2019-03-08T14:03:32.819Z,40.53
2019-03-08T14:05:59.627Z,40.89
2019-03-08T14:08:26.056Z,39.92
2019-03-08T14:10:52.547Z,40.69
2019-03-08T14:13:19.297Z,41.13
2019-03-08T14:15:45.631Z,40.83
2019-03-08T14:18:12.058Z,40.50
2019-03-08T14:20:38.347Z,41.16
2019-03-08T14:23:04.992Z,41.01
2019-03-08T14:25:31.387Z,40.26
2019-03-08T14:27:58.135Z,41.19
2019-03-08T14:30:27.740Z,40.80
2019-03-08T14:32:54.145Z,41.42
2019-03-08T14:35:21.231Z,41.21
2019-03-08T14:37:47.703Z,41.21
2019-03-08T14:40:20.665Z,40.84
2019-03-08T14:42:49.428Z,41.30
2019-03-08T14:45:24.007Z,41.59
2019-03-08T14:47:50.310Z,40.75
2019-03-08T14:50:16.940Z,41.30
2019-03-08T14:52:43.454Z,41.84
2019-03-08T14:55:12.875Z,42.31
2019-03-08T14:57:39.499Z,42.81
2019-03-08T15:00:16.428Z,42.26
2019-03-08T15:02:47.157Z,41.84
2019-03-08T15:05:15.363Z,41.74
2019-03-08T15:07:41.060Z,41.88
2019-03-08T15:10:15.991Z,41.89
2019-03-08T15:12:48.958Z,41.17
2019-03-08T15:15:12.990Z,42.02
2019-03-08T15:17:39.812Z,40.91
2019-03-08T15:20:15.559Z,40.78
2019-03-08T15:22:42.037Z,42.18
2019-03-08T15:25:14.145Z,41.84
2019-03-08T15:27:40.666Z,41.94
2019-03-08T15:30:15.280Z,42.40
2019-03-08T15:32:41.706Z,42.55
2019-03-08T15:35:11.204Z,43.08
2019-03-08T15:37:44.325Z,43.11
2019-03-08T15:40:19.100Z,43.11
2019-03-08T15:42:45.552Z,43.24
2019-03-08T15:45:12.356Z,43.67
2019-03-08T15:47:39.219Z,43.60
2019-03-08T15:50:13.773Z,42.77
2019-03-08T15:52:40.673Z,43.01
2019-03-08T15:55:07.488Z,43.01
2019-03-08T15:57:34.096Z,43.65
2019-03-08T16:00:00.615Z,43.01
2019-03-08T16:02:27.440Z,43.55
2019-03-08T16:04:53.830Z,43.44
2019-03-08T16:07:23.042Z,43.47
2019-03-08T16:09:48.957Z,43.80
2019-03-08T16:12:15.579Z,44.07
2019-03-08T16:14:41.994Z,44.04
2019-03-08T16:17:08.643Z,44.14
2019-03-08T16:19:34.959Z,44.38
2019-03-08T16:22:01.283Z,44.63
2019-03-08T16:24:31.234Z,44.29
2019-03-08T16:26:58.796Z,44.68
2019-03-08T16:29:24.657Z,44.81
2019-03-08T16:31:59.996Z,45.03
2019-03-08T16:34:26.778Z,45.01
2019-03-08T16:37:03.755Z,45.46
2019-03-08T16:39:32.160Z,45.76
2019-03-08T16:42:06.801Z,46.10
2019-03-08T16:44:40.941Z,46.10
2019-03-08T16:47:13.701Z,46.43
2019-03-08T16:50:00.310Z,46.51
2019-03-08T16:52:27.064Z,46.16
2019-03-08T16:54:53.466Z,46.29
2019-03-08T16:57:24.543Z,46.54
2019-03-08T17:00:10.754Z,46.70
2019-03-08T17:02:51.192Z,46.85
2019-03-08T17:05:37.584Z,47.13
2019-03-08T17:08:09.847Z,47.07
2019-03-08T17:10:55.100Z,47.15
2019-03-08T17:13:26.271Z,46.91
2019-03-08T17:16:04.085Z,47.04
2019-03-08T17:18:32.377Z,47.18
2019-03-08T17:21:17.164Z,47.17
2019-03-08T17:23:45.401Z,47.06
2019-03-08T17:26:30.193Z,47.08
2019-03-08T17:29:01.472Z,47.42
2019-03-08T17:31:27.970Z,47.43
2019-03-08T17:33:56.519Z,48.54
2019-03-08T17:36:25.560Z,52.16
2019-03-08T17:39:03.016Z,51.75
2019-03-08T17:41:32.014Z,52.95
2019-03-08T17:44:13.444Z,52.84
2019-03-08T17:46:49.251Z,52.41
2019-03-08T17:49:21.561Z,51.57
2019-03-08T17:51:49.848Z,51.47
2019-03-08T17:54:16.475Z,51.40
2019-03-08T17:56:53.591Z,51.40
2019-03-08T17:59:30.796Z,51.21
2019-03-08T18:02:16.087Z,51.53
2019-03-08T18:05:01.672Z,51.34
2019-03-08T18:07:40.182Z,51.39
2019-03-08T18:10:21.957Z,51.09
2019-03-08T18:12:51.115Z,50.75
2019-03-08T18:15:22.326Z,50.56
2019-03-08T18:17:50.557Z,50.62
2019-03-08T18:20:34.490Z,50.29
2019-03-08T18:23:11.931Z,50.32
2019-03-08T18:25:56.697Z,50.18
2019-03-08T18:28:31.015Z,50.13
2019-03-08T18:31:16.082Z,47.14
2019-03-08T18:34:01.051Z,47.83
2019-03-08T18:36:46.731Z,47.49
2019-03-08T18:39:21.044Z,46.42
2019-03-08T18:41:49.299Z,47.09
2019-03-08T18:44:33.761Z,45.60
2019-03-08T18:47:02.090Z,45.16
2019-03-08T18:49:54.131Z,44.85
2019-03-08T18:52:30.931Z,44.59
2019-03-08T18:55:02.129Z,44.40
2019-03-08T18:57:33.262Z,43.81
2019-03-08T19:00:13.714Z,43.95
2019-03-08T19:02:40.464Z,43.35
2019-03-08T19:05:13.797Z,43.44
2019-03-08T19:07:57.378Z,43.47
2019-03-08T19:10:38.091Z,42.58
2019-03-08T19:13:12.248Z,42.23
2019-03-08T19:15:47.535Z,42.73
2019-03-08T19:18:16.667Z,42.54
2019-03-08T19:20:44.968Z,42.54
2019-03-08T19:23:13.488Z,41.99
2019-03-08T19:25:48.065Z,42.07
2019-03-08T19:28:20.498Z,41.88
2019-03-08T19:30:58.094Z,42.17
2019-03-08T19:33:44.601Z,42.23
2019-03-08T19:36:12.795Z,42.54
2019-03-08T19:38:41.214Z,42.77
2019-03-08T19:41:13.738Z,43.07
2019-03-08T19:43:45.171Z,43.21
2019-03-08T19:46:11.558Z,43.38
2019-03-08T19:48:42.938Z,43.69
2019-03-08T19:51:14.993Z,43.48
2019-03-08T19:53:47.734Z,44.12
2019-03-08T19:56:22.173Z,44.24
2019-03-08T19:59:06.842Z,44.54
2019-03-08T20:01:40.822Z,44.77
2019-03-08T20:04:15.415Z,44.60
2019-03-08T20:06:56.055Z,44.79
2019-03-08T20:09:30.124Z,44.99
2019-03-08T20:12:02.465Z,45.02
2019-03-08T20:14:28.994Z,44.86
2019-03-08T20:16:57.362Z,44.86
2019-03-08T20:19:26.737Z,44.95
2019-03-08T20:22:09.757Z,44.73
2019-03-08T20:24:54.189Z,44.51
2019-03-08T20:27:25.553Z,44.55
2019-03-08T20:29:56.821Z,44.25
2019-03-08T20:32:28.051Z,44.09
2019-03-08T20:34:54.489Z,44.36
2019-03-08T20:37:35.100Z,44.28
2019-03-08T20:40:22.876Z,44.32
2019-03-08T20:42:51.196Z,44.26
2019-03-08T20:45:36.631Z,43.96
2019-03-08T20:48:03.595Z,43.36
2019-03-08T20:50:30.235Z,44.22
2019-03-08T20:52:56.841Z,44.07
2019-03-08T20:55:23.415Z,44.37
2019-03-08T20:57:49.947Z,44.36
2019-03-08T21:00:16.832Z,44.25
2019-03-08T21:02:43.591Z,44.26
2019-03-08T21:05:10.187Z,44.59
2019-03-08T21:07:36.633Z,44.64
2019-03-08T21:10:08.439Z,44.82
2019-03-08T21:12:34.847Z,45.11
2019-03-08T21:15:01.350Z,45.31
2019-03-08T21:17:27.687Z,45.94
2019-03-08T21:19:54.267Z,45.95
2019-03-08T21:22:20.667Z,45.81
2019-03-08T21:24:47.092Z,45.86
2019-03-08T21:27:13.697Z,45.61
2019-03-08T21:29:40.441Z,45.54
2019-03-08T21:32:07.554Z,45.39
2019-03-08T21:34:34.349Z,45.25
2019-03-08T21:37:00.859Z,45.23
2019-03-08T21:39:27.908Z,45.07
2019-03-08T21:41:54.543Z,44.92
2019-03-08T21:44:21.188Z,44.84
2019-03-08T21:46:47.819Z,45.11
2019-03-08T21:49:14.331Z,44.66
2019-03-08T21:51:40.886Z,45.10
2019-03-08T21:54:07.570Z,45.11
2019-03-08T21:56:34.045Z,44.98
2019-03-08T21:59:00.336Z,45.29
2019-03-08T22:01:26.957Z,45.35
2019-03-08T22:03:55.511Z,45.51
2019-03-08T22:06:22.180Z,45.64
2019-03-08T22:08:53.271Z,45.76
2019-03-08T22:11:21.203Z,46.04
2019-03-08T22:13:47.799Z,45.89
2019-03-08T22:16:14.676Z,46.14
2019-03-08T22:18:41.257Z,46.12
2019-03-08T22:21:07.895Z,46.25
2019-03-08T22:23:34.304Z,46.34
2019-03-08T22:26:00.609Z,46.54
2019-03-08T22:28:26.913Z,46.79
2019-03-08T22:30:53.520Z,46.62
2019-03-08T22:33:20.307Z,46.50
2019-03-08T22:35:46.929Z,46.54
2019-03-08T22:38:13.728Z,46.76
2019-03-08T22:40:40.251Z,46.92
2019-03-08T22:43:06.581Z,47.17
2019-03-08T22:45:33.292Z,47.37
2019-03-08T22:48:00.195Z,47.31
2019-03-08T22:50:26.689Z,47.65
2019-03-08T22:52:53.671Z,47.69
2019-03-08T22:55:20.056Z,47.90
2019-03-08T22:57:46.416Z,48.29
2019-03-08T23:00:34.793Z,48.37
2019-03-08T23:03:01.231Z,48.72
2019-03-08T23:05:27.726Z,49.06
2019-03-08T23:07:54.075Z,49.15
2019-03-08T23:10:20.829Z,49.21
2019-03-08T23:12:47.459Z,49.42
2019-03-08T23:15:14.270Z,49.53
2019-03-08T23:17:41.147Z,49.85
2019-03-08T23:20:08.075Z,50.01
2019-03-08T23:22:34.490Z,50.21
2019-03-08T23:25:00.894Z,50.29
2019-03-08T23:27:29.390Z,50.46
2019-03-08T23:29:57.583Z,50.65
2019-03-08T23:32:25.875Z,51.07
2019-03-08T23:34:52.307Z,50.98
2019-03-08T23:37:18.956Z,51.04
2019-03-08T23:39:45.456Z,51.11
2019-03-08T23:42:12.074Z,51.22
2019-03-08T23:44:38.477Z,51.36
2019-03-08T23:47:04.873Z,51.22
2019-03-08T23:49:31.674Z,51.40
2019-03-08T23:51:57.994Z,51.78
2019-03-08T23:54:24.393Z,51.88
2019-03-08T23:56:52.479Z,51.90
2019-03-08T23:59:19.035Z,52.17
